Time;durP1;ratioP1;P1;durP2;ratioP2;P2;SDS_P1;SDS_P2;PMS_P1;PMS_P2;Temp;Humidity;BMP_temperature;BMP_pressure;BME280_temperature;BME280_humidity;BME280_pressure;Samples;Min_cycle;Max_cycle;Signal;HPM_P1;HPM_P2
2023/11/10 00:00:11;;;;;;;1.93;1.70;;;9.60;99.90;;;;;;5075861;28;20326;-68
2023/11/10 00:02:42;;;;;;;1.80;1.70;;;9.60;99.90;;;;;;5065796;28;20170;-67
2023/11/10 00:05:09;;;;;;;1.70;1.50;;;9.50;99.90;;;;;;5075960;28;20800;-68
2023/11/10 00:07:35;;;;;;;3.30;1.90;;;9.50;99.90;;;;;;5076182;28;20414;-67
2023/11/10 00:10:04;;;;;;;2.73;2.43;;;9.50;99.90;;;;;;5066853;28;21004;-67
2023/11/10 00:12:30;;;;;;;2.70;1.73;;;9.50;99.90;;;;;;5057864;28;20889;-68
2023/11/10 00:14:57;;;;;;;2.03;1.83;;;9.50;99.90;;;;;;5076028;28;20484;-68
2023/11/10 00:17:23;;;;;;;2.33;1.80;;;9.50;99.90;;;;;;5075982;28;20558;-68
2023/11/10 00:19:49;;;;;;;1.90;1.70;;;9.50;99.90;;;;;;5075637;28;20463;-67
2023/11/10 00:22:15;;;;;;;2.13;1.70;;;9.50;99.90;;;;;;5035373;28;20463;-66
2023/11/10 00:24:45;;;;;;;2.43;1.70;;;9.50;99.90;;;;;;5065460;28;20284;-67
2023/11/10 00:27:13;;;;;;;3.23;2.10;;;9.50;99.90;;;;;;5050167;28;20178;-67
2023/11/10 00:29:43;;;;;;;2.27;1.80;;;9.50;99.90;;;;;;5075372;28;20435;-67
2023/11/10 00:32:11;;;;;;;2.57;1.80;;;9.50;99.90;;;;;;5075464;28;20431;-68
2023/11/10 00:34:37;;;;;;;2.07;1.70;;;9.60;99.90;;;;;;5075352;28;21344;-69
2023/11/10 00:37:03;;;;;;;1.67;1.57;;;9.50;99.90;;;;;;5075312;28;20507;-67
2023/11/10 00:39:29;;;;;;;6.73;1.90;;;9.50;99.90;;;;;;5040240;28;20878;-67
2023/11/10 00:41:55;;;;;;;1.70;1.60;;;9.40;99.90;;;;;;5064291;28;20440;-67
2023/11/10 00:44:22;;;;;;;3.30;1.73;;;9.40;99.90;;;;;;5068506;28;20837;-66
2023/11/10 00:46:49;;;;;;;2.63;2.10;;;9.30;99.90;;;;;;5075199;28;20439;-67
2023/11/10 00:49:15;;;;;;;2.10;1.90;;;9.20;99.90;;;;;;5074476;28;20782;-67
2023/11/10 00:51:41;;;;;;;1.97;1.60;;;9.10;99.90;;;;;;5072711;28;20972;-66
2023/11/10 00:54:06;;;;;;;3.97;1.80;;;9.10;99.90;;;;;;5061501;28;20257;-67
2023/11/10 00:56:33;;;;;;;2.23;2.07;;;9.10;99.90;;;;;;5075588;28;20177;-66
2023/11/10 00:59:02;;;;;;;2.40;2.20;;;9.00;99.90;;;;;;5034606;28;20197;-66
2023/11/10 01:01:28;;;;;;;4.30;2.20;;;9.00;99.90;;;;;;5066504;28;20439;-69
2023/11/10 01:03:58;;;;;;;2.70;1.97;;;9.00;99.90;;;;;;5075082;28;20540;-68
2023/11/10 01:06:24;;;;;;;2.30;2.03;;;8.90;99.90;;;;;;5075134;28;20177;-67
2023/11/10 01:08:50;;;;;;;2.60;1.93;;;8.80;99.90;;;;;;5074583;28;20427;-67
2023/11/10 01:11:16;;;;;;;3.33;3.10;;;8.80;99.90;;;;;;5074561;28;20467;-67
2023/11/10 01:13:42;;;;;;;2.70;2.00;;;8.80;99.90;;;;;;5071189;28;20176;-68
2023/11/10 01:16:07;;;;;;;2.13;1.77;;;8.70;99.90;;;;;;5071241;28;20743;-67
2023/11/10 01:18:33;;;;;;;3.30;2.37;;;8.70;99.90;;;;;;5069375;28;20488;-67
2023/11/10 01:20:59;;;;;;;2.43;1.87;;;8.60;99.90;;;;;;5063528;28;20537;-67
2023/11/10 01:23:25;;;;;;;2.07;1.97;;;8.60;99.90;;;;;;5073330;28;20839;-68
2023/11/10 01:25:51;;;;;;;4.60;1.90;;;8.60;99.90;;;;;;5074137;28;20426;-69
2023/11/10 01:28:18;;;;;;;2.30;2.03;;;8.60;99.90;;;;;;5069092;28;20417;-66
2023/11/10 01:30:45;;;;;;;2.80;2.37;;;8.60;99.90;;;;;;5070735;28;20638;-68
2023/11/10 01:33:10;;;;;;;4.13;2.20;;;8.50;99.90;;;;;;5070373;28;20422;-67
2023/11/10 01:35:36;;;;;;;3.20;2.27;;;8.50;99.90;;;;;;5065869;28;20417;-67
2023/11/10 01:38:02;;;;;;;1.70;1.50;;;8.50;99.90;;;;;;5071554;28;20184;-67
2023/11/10 01:40:28;;;;;;;2.23;1.77;;;8.50;99.90;;;;;;5074009;28;20830;-68
2023/11/10 01:42:54;;;;;;;2.40;1.63;;;8.50;99.90;;;;;;5073882;28;20181;-68
2023/11/10 01:45:20;;;;;;;3.20;1.87;;;8.40;99.90;;;;;;5074273;28;20750;-69
2023/11/10 01:47:46;;;;;;;2.73;2.20;;;8.50;99.90;;;;;;5055925;28;20569;-68
2023/11/10 01:50:13;;;;;;;2.13;1.73;;;8.40;99.90;;;;;;5073465;28;20492;-68
2023/11/10 01:52:41;;;;;;;2.40;2.20;;;8.40;99.90;;;;;;5060941;28;20483;-66
2023/11/10 01:55:12;;;;;;;2.70;1.80;;;8.40;99.90;;;;;;5063548;28;20473;-66
2023/11/10 01:57:38;;;;;;;6.93;2.50;;;8.40;99.90;;;;;;5074094;28;20419;-67
2023/11/10 02:00:04;;;;;;;1.90;1.70;;;8.50;99.90;;;;;;5073250;28;20481;-67
2023/11/10 02:02:31;;;;;;;3.00;1.50;;;8.40;99.90;;;;;;5073725;28;20505;-67
2023/11/10 02:04:57;;;;;;;2.17;1.97;;;8.50;99.90;;;;;;5073425;28;20416;-67
2023/11/10 02:07:23;;;;;;;2.80;2.07;;;8.50;99.90;;;;;;5071770;28;20429;-66
2023/11/10 02:09:49;;;;;;;4.60;1.93;;;8.60;99.90;;;;;;5060431;28;20960;-67
2023/11/10 02:12:15;;;;;;;2.30;1.53;;;8.60;99.90;;;;;;5074036;28;20810;-68
2023/11/10 02:14:40;;;;;;;3.00;1.73;;;8.60;99.90;;;;;;5058617;28;20514;-67
2023/11/10 02:17:06;;;;;;;2.47;1.90;;;8.60;99.90;;;;;;5073651;28;20169;-67
2023/11/10 02:19:33;;;;;;;2.90;1.83;;;8.60;99.90;;;;;;5067345;28;20299;-68
2023/11/10 02:21:58;;;;;;;2.50;1.80;;;8.60;99.90;;;;;;5073128;28;20418;-66
2023/11/10 02:24:26;;;;;;;2.33;1.80;;;8.60;99.90;;;;;;5071000;28;21031;-68
2023/11/10 02:26:52;;;;;;;6.20;1.40;;;8.50;99.90;;;;;;5073733;28;20260;-67
2023/11/10 02:29:18;;;;;;;2.27;1.70;;;8.50;99.90;;;;;;5073344;28;20794;-67
2023/11/10 02:31:44;;;;;;;1.73;1.30;;;8.50;99.90;;;;;;5073567;28;20415;-66
2023/11/10 02:34:09;;;;;;;1.53;1.43;;;8.40;99.90;;;;;;5058978;28;20234;-67
2023/11/10 02:36:35;;;;;;;4.87;2.00;;;8.40;99.90;;;;;;5072927;28;20184;-66
2023/11/10 02:39:04;;;;;;;2.10;1.67;;;8.40;99.90;;;;;;5072873;28;20747;-67
2023/11/10 02:41:29;;;;;;;3.20;1.70;;;8.40;99.90;;;;;;5050525;28;20434;-67
2023/11/10 02:43:55;;;;;;;3.33;1.50;;;8.40;99.90;;;;;;5062377;28;20415;-67
2023/11/10 02:46:21;;;;;;;3.80;1.60;;;8.40;99.90;;;;;;5074022;28;20176;-67
2023/11/10 02:48:46;;;;;;;3.40;1.40;;;8.40;99.90;;;;;;5074411;28;20195;-67
2023/11/10 02:51:13;;;;;;;1.60;1.40;;;8.40;99.90;;;;;;5073965;28;20210;-67
2023/11/10 02:53:38;;;;;;;1.70;1.60;;;8.40;99.90;;;;;;5073271;28;20177;-67
2023/11/10 02:56:06;;;;;;;6.20;1.80;;;8.40;99.90;;;;;;5073428;28;20952;-68
2023/11/10 02:58:33;;;;;;;1.30;1.20;;;8.30;99.90;;;;;;5062947;28;20288;-66
2023/11/10 03:00:58;;;;;;;2.47;1.63;;;8.30;99.90;;;;;;5073010;28;20453;-67
2023/11/10 03:03:24;;;;;;;3.00;1.50;;;8.30;99.90;;;;;;5054768;28;20436;-67
2023/11/10 03:05:49;;;;;;;1.30;1.20;;;8.30;99.90;;;;;;5072844;28;20553;-67
2023/11/10 03:08:16;;;;;;;4.63;1.70;;;8.30;99.90;;;;;;5073141;28;20173;-67
2023/11/10 03:10:42;;;;;;;2.50;1.50;;;8.20;99.90;;;;;;5073281;28;20286;-66
2023/11/10 03:13:09;;;;;;;7.70;1.67;;;8.20;99.90;;;;;;5077559;28;20420;-67
2023/11/10 03:15:36;;;;;;;2.60;1.40;;;8.20;99.90;;;;;;5056774;28;21376;-67
2023/11/10 03:18:01;;;;;;;2.80;1.40;;;8.20;99.90;;;;;;5052998;28;20437;-66
2023/11/10 03:20:27;;;;;;;2.03;1.27;;;8.10;99.90;;;;;;5076566;28;20637;-67
2023/11/10 03:22:52;;;;;;;2.13;1.33;;;8.10;99.90;;;;;;5069932;28;20271;-67
2023/11/10 03:25:18;;;;;;;3.10;1.50;;;8.10;99.90;;;;;;5070665;28;20199;-67
2023/11/10 03:27:44;;;;;;;1.57;1.47;;;8.10;99.90;;;;;;5078035;28;20194;-68
2023/11/10 03:30:10;;;;;;;3.03;1.50;;;8.00;99.90;;;;;;5068928;28;20257;-67
2023/11/10 03:32:36;;;;;;;3.80;1.83;;;8.00;99.90;;;;;;5072669;28;20872;-66
2023/11/10 03:35:03;;;;;;;2.20;1.50;;;7.90;99.90;;;;;;5066441;28;20430;-67
2023/11/10 03:37:29;;;;;;;1.80;1.53;;;7.90;99.90;;;;;;5077250;28;20177;-66
2023/11/10 03:39:54;;;;;;;2.90;1.83;;;7.90;99.90;;;;;;5075142;28;20540;-66
2023/11/10 03:42:20;;;;;;;3.77;1.83;;;7.90;99.90;;;;;;5076101;28;20911;-66
2023/11/10 03:44:46;;;;;;;2.33;1.33;;;7.90;99.90;;;;;;5076138;28;20666;-67
2023/11/10 03:47:11;;;;;;;5.80;1.60;;;7.90;99.90;;;;;;5076203;28;20200;-67
2023/11/10 03:49:39;;;;;;;5.90;2.03;;;8.10;99.90;;;;;;5072524;28;20655;-68
2023/11/10 03:52:06;;;;;;;6.47;2.20;;;8.00;99.90;;;;;;5071089;28;20627;-67
2023/11/10 03:54:32;;;;;;;2.40;1.50;;;8.10;99.90;;;;;;5075405;28;20444;-67
2023/11/10 03:56:57;;;;;;;1.73;1.43;;;8.10;99.90;;;;;;5065650;28;20534;-67
2023/11/10 03:59:23;;;;;;;2.77;1.70;;;8.10;99.90;;;;;;5069886;28;20500;-67
2023/11/10 04:01:48;;;;;;;2.10;1.80;;;8.10;99.90;;;;;;5075404;28;20176;-66
2023/11/10 04:04:14;;;;;;;3.43;1.67;;;8.10;99.90;;;;;;5075732;28;20209;-67
2023/11/10 04:06:40;;;;;;;2.73;1.83;;;8.10;99.90;;;;;;5073553;28;20645;-67
2023/11/10 04:09:05;;;;;;;6.20;1.57;;;8.10;99.90;;;;;;5075936;28;20300;-67
2023/11/10 04:11:31;;;;;;;2.03;1.50;;;8.10;99.90;;;;;;5075687;28;20699;-67
2023/11/10 04:13:56;;;;;;;2.57;1.50;;;8.10;99.90;;;;;;5075616;28;20176;-66
2023/11/10 04:16:23;;;;;;;3.17;1.60;;;8.10;99.90;;;;;;5061680;28;20822;-66
2023/11/10 04:18:53;;;;;;;1.70;1.60;;;8.20;99.90;;;;;;5075271;28;20292;-67
2023/11/10 04:21:23;;;;;;;3.80;1.63;;;8.20;99.90;;;;;;5057601;28;20866;-67
2023/11/10 04:23:49;;;;;;;1.80;1.20;;;8.20;99.90;;;;;;5055858;28;20443;-66
2023/11/10 04:26:15;;;;;;;1.30;1.20;;;8.30;99.90;;;;;;5071125;28;20989;-65
2023/11/10 04:28:42;;;;;;;1.93;1.20;;;8.30;99.90;;;;;;5069824;28;20716;-67
2023/11/10 04:31:11;;;;;;;4.00;1.70;;;8.30;99.90;;;;;;5056254;28;20172;-66
2023/11/10 04:33:37;;;;;;;1.37;1.20;;;8.40;99.90;;;;;;5075273;28;20421;-67
2023/11/10 04:36:09;;;;;;;5.03;1.97;;;8.40;99.90;;;;;;5075425;28;20555;-66
2023/11/10 04:38:35;;;;;;;1.87;1.53;;;8.40;99.90;;;;;;5075183;28;20518;-67
2023/11/10 04:41:04;;;;;;;2.93;2.50;;;8.40;99.90;;;;;;5073325;28;20918;-67
2023/11/10 04:43:30;;;;;;;2.00;1.77;;;8.50;99.90;;;;;;5075518;28;20174;-67
2023/11/10 04:45:55;;;;;;;5.90;1.43;;;8.60;99.90;;;;;;5074821;28;20424;-68
2023/11/10 04:48:22;;;;;;;2.53;1.40;;;8.60;99.90;;;;;;5075664;28;20174;-67
2023/11/10 04:50:48;;;;;;;1.40;1.30;;;8.60;99.90;;;;;;5074319;28;20193;-67
2023/11/10 04:53:13;;;;;;;3.00;1.30;;;8.70;99.90;;;;;;5075358;28;21000;-68
2023/11/10 04:55:40;;;;;;;2.90;1.40;;;8.70;99.90;;;;;;5075009;28;20433;-67
2023/11/10 04:58:06;;;;;;;1.60;1.40;;;8.70;99.90;;;;;;5054938;28;20172;-67
2023/11/10 05:00:33;;;;;;;1.87;1.60;;;8.70;99.90;;;;;;5075012;28;21011;-68
2023/11/10 05:03:03;;;;;;;2.70;2.03;;;8.80;99.90;;;;;;5075458;28;20791;-67
2023/11/10 05:05:29;;;;;;;1.73;1.30;;;8.80;99.90;;;;;;5074898;28;20517;-69
2023/11/10 05:07:55;;;;;;;2.90;1.50;;;8.80;99.90;;;;;;5075059;28;20415;-67
2023/11/10 05:10:21;;;;;;;2.63;1.73;;;8.80;99.90;;;;;;5072497;28;20434;-68
2023/11/10 05:12:47;;;;;;;2.90;1.50;;;8.80;99.90;;;;;;5073042;28;20500;-67
2023/11/10 05:15:14;;;;;;;4.60;1.60;;;8.80;99.90;;;;;;5072891;28;20308;-67
2023/11/10 05:17:44;;;;;;;1.70;1.57;;;8.90;99.90;;;;;;5074452;28;20919;-68
2023/11/10 05:20:10;;;;;;;2.60;1.60;;;8.80;99.90;;;;;;5074440;28;20473;-66
2023/11/10 05:22:37;;;;;;;1.60;1.40;;;8.80;99.90;;;;;;5073992;28;20467;-66
2023/11/10 05:25:03;;;;;;;2.50;1.30;;;8.70;99.90;;;;;;5074579;28;20419;-67
2023/11/10 05:27:29;;;;;;;2.27;1.53;;;8.70;99.90;;;;;;5074755;28;20425;-67
2023/11/10 05:29:55;;;;;;;2.60;1.70;;;8.70;99.90;;;;;;5074303;28;20992;-68
2023/11/10 05:32:20;;;;;;;2.53;1.80;;;8.80;99.90;;;;;;5072529;28;20447;-67
2023/11/10 05:34:48;;;;;;;2.20;1.30;;;8.80;99.90;;;;;;5073054;28;20275;-68
2023/11/10 05:37:14;;;;;;;2.37;1.70;;;8.80;99.90;;;;;;5074323;28;20669;-68
2023/11/10 05:39:39;;;;;;;2.63;2.10;;;8.80;99.90;;;;;;5074011;28;20467;-68
2023/11/10 05:42:05;;;;;;;1.80;1.43;;;8.70;99.90;;;;;;5074312;28;20742;-68
2023/11/10 05:44:31;;;;;;;2.40;2.13;;;8.70;99.90;;;;;;5074022;28;20178;-68
2023/11/10 05:46:57;;;;;;;2.23;2.03;;;8.60;99.90;;;;;;5074008;28;20172;-68
2023/11/10 05:49:22;;;;;;;2.37;1.83;;;8.60;99.90;;;;;;5072428;28;20201;-67
2023/11/10 05:51:48;;;;;;;2.60;1.50;;;8.60;99.90;;;;;;5074475;28;20185;-68
2023/11/10 05:54:15;;;;;;;2.80;1.90;;;8.60;99.90;;;;;;5074152;28;20234;-68
2023/11/10 05:56:47;;;;;;;2.40;1.83;;;8.60;99.90;;;;;;5090746;27;20649;-67
2023/11/10 05:59:13;;;;;;;1.73;1.57;;;8.50;99.90;;;;;;5088477;28;20888;-67
2023/11/10 06:01:38;;;;;;;1.70;1.60;;;8.50;99.90;;;;;;5089193;28;20205;-67
2023/11/10 06:04:04;;;;;;;2.30;1.70;;;8.50;99.90;;;;;;5090843;28;20195;-68
2023/11/10 06:06:30;;;;;;;2.33;2.03;;;8.40;99.90;;;;;;5087930;28;20183;-67
2023/11/10 06:08:55;;;;;;;2.43;1.67;;;8.40;99.90;;;;;;5090434;28;20199;-67
2023/11/10 06:11:22;;;;;;;1.70;1.60;;;8.40;99.90;;;;;;5075597;28;20718;-68
2023/11/10 06:13:51;;;;;;;3.23;1.90;;;8.40;99.90;;;;;;5087292;28;20179;-69
2023/11/10 06:16:18;;;;;;;1.90;1.77;;;8.40;99.90;;;;;;5086351;28;20464;-67
2023/11/10 06:18:46;;;;;;;1.93;1.63;;;8.40;99.90;;;;;;5077396;28;20833;-67
2023/11/10 06:21:13;;;;;;;1.60;1.50;;;8.40;99.90;;;;;;5080053;28;20410;-67
2023/11/10 06:23:39;;;;;;;2.40;1.77;;;8.30;99.90;;;;;;5078906;28;20976;-67
2023/11/10 06:26:06;;;;;;;2.30;1.80;;;8.40;99.90;;;;;;5084083;28;20410;-68
2023/11/10 06:28:32;;;;;;;2.40;1.80;;;8.30;99.90;;;;;;5083035;28;20423;-66
2023/11/10 06:30:58;;;;;;;1.70;1.60;;;8.40;99.90;;;;;;5084246;28;20457;-67
2023/11/10 06:33:24;;;;;;;2.00;1.77;;;8.40;99.90;;;;;;5074785;28;20499;-68
2023/11/10 06:35:50;;;;;;;2.50;1.43;;;8.50;99.90;;;;;;5086818;28;20204;-67
2023/11/10 06:38:16;;;;;;;3.93;1.50;;;8.50;99.90;;;;;;5078714;28;20404;-67
2023/11/10 06:40:41;;;;;;;2.10;1.90;;;8.50;99.90;;;;;;5086722;28;20451;-67
2023/11/10 06:43:07;;;;;;;4.00;1.83;;;8.50;99.90;;;;;;5090927;28;20172;-67
2023/11/10 06:45:32;;;;;;;2.80;2.03;;;8.50;99.90;;;;;;5090023;28;20264;-69
2023/11/10 06:48:03;;;;;;;3.80;2.20;;;8.60;99.90;;;;;;5086677;28;20220;-67
2023/11/10 06:50:30;;;;;;;7.20;2.00;;;8.60;99.90;;;;;;5079140;28;20530;-67
2023/11/10 06:52:56;;;;;;;4.33;1.97;;;8.70;99.90;;;;;;5091417;28;20427;-67
2023/11/10 06:55:22;;;;;;;1.70;1.53;;;8.60;99.90;;;;;;5091366;28;21048;-69
2023/11/10 06:57:47;;;;;;;5.00;2.13;;;8.60;99.90;;;;;;5079994;28;20653;-67
2023/11/10 07:00:13;;;;;;;2.43;1.50;;;8.70;99.90;;;;;;5085115;28;20198;-68
2023/11/10 07:02:39;;;;;;;2.37;2.00;;;8.70;99.90;;;;;;5089959;28;20485;-67
2023/11/10 07:05:07;;;;;;;2.00;1.80;;;8.70;99.90;;;;;;5090360;28;20411;-67
2023/11/10 07:07:33;;;;;;;3.37;1.90;;;8.80;99.90;;;;;;5074220;28;20483;-67
2023/11/10 07:09:59;;;;;;;5.73;2.63;;;8.80;99.90;;;;;;5058984;28;20443;-69
2023/11/10 07:12:25;;;;;;;3.50;2.90;;;8.90;99.90;;;;;;5061557;28;20177;-68
2023/11/10 07:14:52;;;;;;;2.80;1.60;;;8.90;99.90;;;;;;5056400;28;20447;-68
2023/11/10 07:17:18;;;;;;;3.30;3.00;;;8.90;99.90;;;;;;5061418;28;20560;-68
2023/11/10 07:19:45;;;;;;;2.97;2.23;;;8.90;99.90;;;;;;5074155;28;20435;-67
2023/11/10 07:22:11;;;;;;;2.50;2.00;;;9.00;99.90;;;;;;5070462;28;20518;-67
2023/11/10 07:24:37;;;;;;;4.47;3.17;;;8.90;99.90;;;;;;5066330;28;20427;-67
2023/11/10 07:27:07;;;;;;;3.47;2.90;;;9.00;99.90;;;;;;5068158;28;20461;-68
2023/11/10 07:29:36;;;;;;;2.80;1.70;;;9.00;99.90;;;;;;5074332;28;20488;-67
2023/11/10 07:32:02;;;;;;;3.50;2.10;;;9.00;99.90;;;;;;5073063;28;20419;-68
2023/11/10 07:34:29;;;;;;;2.27;2.07;;;9.00;99.90;;;;;;5067224;28;21279;-67
2023/11/10 07:36:54;;;;;;;3.93;1.80;;;9.00;99.90;;;;;;5074576;28;20420;-67
2023/11/10 07:39:21;;;;;;;3.93;2.57;;;9.10;99.90;;;;;;5067093;28;20972;-68
2023/11/10 07:41:47;;;;;;;5.37;2.27;;;9.10;99.90;;;;;;5064653;28;20451;-67
2023/11/10 07:44:13;;;;;;;4.40;1.60;;;9.20;99.90;;;;;;5061274;28;20994;-68
2023/11/10 07:46:39;;;;;;;2.53;2.13;;;9.20;99.90;;;;;;5065370;28;20529;-68
2023/11/10 07:49:05;;;;;;;3.10;2.83;;;9.20;99.90;;;;;;5067685;28;20450;-68
2023/11/10 07:51:31;;;;;;;1.53;1.43;;;9.20;99.90;;;;;;5058903;28;20420;-68
2023/11/10 07:53:57;;;;;;;8.23;1.37;;;9.30;99.90;;;;;;5043595;28;20173;-67
2023/11/10 07:56:23;;;;;;;2.47;1.70;;;9.40;99.90;;;;;;5056218;28;20641;-67
2023/11/10 07:58:48;;;;;;;2.60;1.40;;;9.50;99.90;;;;;;5063208;28;20980;-67
2023/11/10 08:01:14;;;;;;;1.53;1.43;;;9.60;99.90;;;;;;5060786;28;20463;-66
2023/11/10 08:03:42;;;;;;;4.67;1.50;;;9.60;99.90;;;;;;5061761;28;20202;-66
2023/11/10 08:06:11;;;;;;;2.47;1.50;;;9.80;99.90;;;;;;5053905;28;20325;-66
2023/11/10 08:08:39;;;;;;;3.53;1.83;;;10.60;99.90;;;;;;5061065;28;20522;-66
2023/11/10 08:11:05;;;;;;;2.27;2.07;;;11.30;99.90;;;;;;5066438;28;20458;-66
2023/11/10 08:13:34;;;;;;;1.53;1.30;;;11.50;99.90;;;;;;5064374;28;20758;-65
2023/11/10 08:16:00;;;;;;;1.60;1.20;;;11.30;99.90;;;;;;5059432;28;20455;-66
2023/11/10 08:18:26;;;;;;;4.10;1.57;;;10.90;99.90;;;;;;5065918;28;20910;-66
2023/11/10 08:20:52;;;;;;;5.07;1.50;;;10.80;99.90;;;;;;5062826;28;20897;-67
2023/11/10 08:23:18;;;;;;;2.87;1.50;;;10.60;99.90;;;;;;5066472;28;20184;-67
2023/11/10 08:25:45;;;;;;;1.97;1.67;;;10.70;99.90;;;;;;5074483;28;20541;-67
2023/11/10 08:28:11;;;;;;;1.87;1.30;;;10.80;99.90;;;;;;5074202;28;20828;-67
2023/11/10 08:30:37;;;;;;;3.57;2.10;;;10.90;99.90;;;;;;5062596;28;20870;-66
2023/11/10 08:33:03;;;;;;;3.00;2.40;;;10.80;99.90;;;;;;5061855;28;20420;-68
2023/11/10 08:35:28;;;;;;;1.70;1.60;;;11.00;99.90;;;;;;5070113;28;20467;-66
2023/11/10 08:37:54;;;;;;;2.33;1.60;;;11.10;99.90;;;;;;5074579;28;20177;-67
2023/11/10 08:40:20;;;;;;;1.80;1.47;;;11.20;99.90;;;;;;5063645;28;20648;-68
2023/11/10 08:42:45;;;;;;;1.47;1.10;;;11.50;99.90;;;;;;5063698;28;20560;-67
2023/11/10 08:45:11;;;;;;;2.70;1.43;;;11.60;99.90;;;;;;5074150;28;20189;-68
2023/11/10 08:47:40;;;;;;;3.37;2.07;;;12.00;99.90;;;;;;5066068;28;20185;-67
2023/11/10 08:50:10;;;;;;;1.93;1.20;;;12.20;99.90;;;;;;5070059;28;21125;-69
2023/11/10 08:52:38;;;;;;;4.03;2.20;;;11.90;99.90;;;;;;5062466;28;20420;-64
2023/11/10 08:55:05;;;;;;;4.30;2.30;;;11.60;99.90;;;;;;5074060;28;20938;-67
2023/11/10 08:57:30;;;;;;;1.50;1.40;;;11.50;99.90;;;;;;5063224;28;20493;-69
2023/11/10 08:59:56;;;;;;;1.43;1.20;;;11.30;99.90;;;;;;5062577;28;20436;-67
2023/11/10 09:02:23;;;;;;;1.13;1.03;;;11.20;99.90;;;;;;5057981;28;20280;-67
2023/11/10 09:04:48;;;;;;;1.27;0.80;;;11.20;99.90;;;;;;5058724;28;20182;-68
2023/11/10 09:07:15;;;;;;;1.87;1.47;;;11.10;99.90;;;;;;5061331;28;20422;-67
2023/11/10 09:09:40;;;;;;;2.70;1.23;;;10.90;99.90;;;;;;5064980;28;20284;-68
2023/11/10 09:12:06;;;;;;;2.33;1.07;;;10.90;99.90;;;;;;5073520;28;20423;-68
2023/11/10 09:14:32;;;;;;;1.93;1.00;;;11.00;99.90;;;;;;5060955;28;20727;-68
2023/11/10 09:16:57;;;;;;;1.73;1.37;;;11.30;99.90;;;;;;5072617;28;20169;-67
2023/11/10 09:19:23;;;;;;;5.73;1.00;;;11.30;99.90;;;;;;5071832;28;20213;-66
2023/11/10 09:21:49;;;;;;;3.13;0.97;;;11.40;99.90;;;;;;5063103;28;20178;-69
2023/11/10 09:24:15;;;;;;;1.53;0.90;;;11.60;99.90;;;;;;5066819;28;20754;-68
2023/11/10 09:26:43;;;;;;;1.60;1.10;;;11.60;99.90;;;;;;5073230;28;20415;-66
2023/11/10 09:29:08;;;;;;;1.73;1.00;;;11.60;99.90;;;;;;5065138;28;20238;-66
2023/11/10 09:31:34;;;;;;;1.63;1.10;;;11.60;99.90;;;;;;5068644;28;20547;-66
2023/11/10 09:33:59;;;;;;;1.80;1.30;;;11.50;99.90;;;;;;5064773;28;20178;-65
2023/11/10 09:36:26;;;;;;;3.53;2.33;;;11.50;99.90;;;;;;5073259;28;20721;-68
2023/11/10 09:38:52;;;;;;;2.60;1.47;;;11.70;99.90;;;;;;5063057;28;20194;-68
2023/11/10 09:41:21;;;;;;;3.57;1.10;;;11.80;99.90;;;;;;5067686;28;20419;-67
2023/11/10 09:43:49;;;;;;;2.47;1.20;;;11.60;99.90;;;;;;5070056;28;20934;-67
2023/11/10 09:46:18;;;;;;;2.30;1.20;;;11.60;99.90;;;;;;5061537;28;20445;-67
2023/11/10 09:48:44;;;;;;;1.87;1.17;;;11.50;99.90;;;;;;5061366;28;20515;-66
2023/11/10 09:51:12;;;;;;;1.63;1.40;;;11.50;99.90;;;;;;5060301;28;20951;-68
2023/11/10 09:53:39;;;;;;;2.93;1.80;;;11.50;99.90;;;;;;5069192;28;21003;-68
2023/11/10 09:56:05;;;;;;;2.63;1.10;;;11.50;99.90;;;;;;5068901;28;20472;-69
2023/11/10 09:58:33;;;;;;;2.93;1.13;;;11.60;99.90;;;;;;5067962;28;20769;-68
2023/11/10 10:00:59;;;;;;;1.77;1.27;;;11.60;99.90;;;;;;5073012;28;20415;-69
2023/11/10 10:03:25;;;;;;;1.27;1.07;;;11.70;99.90;;;;;;5059551;28;20872;-66
2023/11/10 10:05:51;;;;;;;2.23;1.13;;;11.90;99.90;;;;;;5053893;28;20432;-67
2023/11/10 10:08:19;;;;;;;3.90;1.30;;;11.90;99.90;;;;;;5061101;28;20182;-67
2023/11/10 10:10:49;;;;;;;1.90;1.60;;;11.90;99.90;;;;;;5055524;28;20449;-66
2023/11/10 10:13:15;;;;;;;1.00;0.90;;;12.00;99.90;;;;;;5072689;28;20435;-66
2023/11/10 10:15:41;;;;;;;1.10;1.00;;;12.00;99.90;;;;;;5064208;28;20538;-68
2023/11/10 10:18:13;;;;;;;1.83;0.90;;;11.80;99.90;;;;;;5062070;28;20479;-68
2023/11/10 10:20:41;;;;;;;3.47;1.20;;;11.90;99.90;;;;;;5056224;28;20745;-67
2023/11/10 10:23:10;;;;;;;2.43;1.30;;;11.90;99.90;;;;;;5061047;28;21055;-67
2023/11/10 10:25:38;;;;;;;2.00;0.97;;;11.80;99.90;;;;;;5069166;28;20434;-68
2023/11/10 10:28:06;;;;;;;3.30;1.30;;;11.80;99.90;;;;;;5061197;28;20873;-68
2023/11/10 10:30:32;;;;;;;2.80;1.10;;;11.80;99.90;;;;;;5060719;28;20440;-68
2023/11/10 10:32:58;;;;;;;2.43;1.13;;;11.90;99.90;;;;;;5062955;28;20424;-68
2023/11/10 10:35:23;;;;;;;2.63;1.30;;;11.90;99.90;;;;;;5066565;28;20823;-68
2023/11/10 10:37:53;;;;;;;1.90;1.70;;;11.90;99.90;;;;;;5062665;28;20191;-66
2023/11/10 10:40:20;;;;;;;1.90;1.40;;;12.00;99.90;;;;;;5060986;28;20194;-68
2023/11/10 10:42:46;;;;;;;3.03;1.53;;;11.80;99.90;;;;;;5072076;28;20427;-67
2023/11/10 10:45:13;;;;;;;1.40;1.27;;;11.80;99.90;;;;;;5067728;28;20515;-67
2023/11/10 10:47:40;;;;;;;2.50;1.27;;;11.70;99.90;;;;;;5067802;28;21066;-67
2023/11/10 10:50:10;;;;;;;1.00;0.90;;;11.80;99.90;;;;;;5067668;28;20955;-67
2023/11/10 10:52:36;;;;;;;2.40;1.10;;;11.80;99.90;;;;;;5068671;28;20436;-67
2023/11/10 10:55:05;;;;;;;2.07;1.10;;;11.80;99.90;;;;;;5064266;28;20478;-68
2023/11/10 10:57:33;;;;;;;2.60;1.30;;;11.90;99.90;;;;;;5076684;28;20416;-67
2023/11/10 11:00:05;;;;;;;1.07;0.90;;;11.70;99.90;;;;;;5059995;28;20982;-66
2023/11/10 11:02:34;;;;;;;1.30;1.10;;;11.80;99.90;;;;;;5067464;28;20457;-68
2023/11/10 11:05:14;;;;;;;1.10;1.00;;;11.80;99.90;;;;;;5065594;28;20599;-67
2023/11/10 11:07:58;;;;;;;1.30;1.00;;;11.80;99.90;;;;;;5059396;28;21267;-67
2023/11/10 11:11:00;;;;;;;1.30;1.03;;;11.60;99.90;;;;;;5068057;28;21013;-66
2023/11/10 11:13:41;;;;;;;7.87;1.37;;;11.70;99.90;;;;;;5090063;28;20414;-68
2023/11/10 11:16:23;;;;;;;2.43;1.20;;;11.70;99.90;;;;;;5070685;28;20525;-67
2023/11/10 11:19:28;;;;;;;2.13;1.20;;;11.70;99.90;;;;;;5067534;28;20444;-68
2023/11/10 11:21:55;;;;;;;1.83;1.40;;;11.70;99.90;;;;;;5073335;28;20511;-67
2023/11/10 11:24:24;;;;;;;1.23;1.13;;;11.80;99.90;;;;;;5063821;28;20838;-66
2023/11/10 11:26:56;;;;;;;1.57;1.20;;;11.80;99.90;;;;;;5072906;28;20423;-66
2023/11/10 11:29:21;;;;;;;2.07;1.00;;;11.80;99.90;;;;;;5068410;28;20439;-67
2023/11/10 11:31:47;;;;;;;1.70;1.20;;;11.90;99.90;;;;;;5075396;28;20933;-68
2023/11/10 11:34:16;;;;;;;3.87;1.43;;;12.00;99.90;;;;;;5075796;28;20419;-66
2023/11/10 11:36:46;;;;;;;1.33;1.17;;;11.90;99.90;;;;;;5067009;28;20205;-67
2023/11/10 11:39:16;;;;;;;1.33;1.17;;;11.90;99.90;;;;;;5055922;28;20803;-67
2023/11/10 11:42:08;;;;;;;1.03;0.90;;;11.90;99.90;;;;;;5071554;28;20439;-66
2023/11/10 11:44:36;;;;;;;1.87;1.77;;;11.80;99.90;;;;;;5074934;28;20423;-68
2023/11/10 11:47:11;;;;;;;1.23;1.00;;;11.70;99.90;;;;;;5067927;28;20514;-66
2023/11/10 11:49:40;;;;;;;2.80;1.23;;;11.60;99.90;;;;;;5070560;28;21319;-65
2023/11/10 11:52:08;;;;;;;1.60;1.20;;;11.60;99.90;;;;;;5074992;28;20428;-66
2023/11/10 11:54:34;;;;;;;1.90;1.30;;;11.50;99.90;;;;;;5075057;28;20830;-65
2023/11/10 11:57:01;;;;;;;1.30;1.10;;;11.40;99.90;;;;;;5066069;28;20486;-67
2023/11/10 11:59:27;;;;;;;1.30;1.20;;;11.40;99.90;;;;;;5067346;28;20228;-66
2023/11/10 12:01:55;;;;;;;1.93;1.20;;;11.50;99.90;;;;;;5065815;28;20768;-69
2023/11/10 12:04:21;;;;;;;1.30;1.00;;;11.40;99.90;;;;;;5063075;28;20488;-66
2023/11/10 12:06:47;;;;;;;1.80;1.50;;;11.40;99.90;;;;;;5066529;28;20787;-73
2023/11/10 12:09:13;;;;;;;1.20;1.10;;;11.40;99.90;;;;;;5066793;28;20470;-69
2023/11/10 12:11:39;;;;;;;2.57;1.87;;;11.40;99.90;;;;;;5074508;28;20435;-67
2023/11/10 12:14:06;;;;;;;3.17;1.30;;;11.40;99.90;;;;;;5074966;28;20189;-67
2023/11/10 12:16:35;;;;;;;2.50;1.30;;;11.40;99.90;;;;;;5068478;28;20854;-67
2023/11/10 12:19:04;;;;;;;1.93;1.33;;;11.30;99.90;;;;;;5063022;28;20917;-68
2023/11/10 12:21:34;;;;;;;1.70;1.30;;;11.20;99.90;;;;;;5056716;28;20415;-67
2023/11/10 12:24:04;;;;;;;4.07;1.40;;;11.20;99.90;;;;;;5074823;28;20517;-63
2023/11/10 12:26:34;;;;;;;1.97;1.27;;;11.20;99.90;;;;;;5060360;28;20440;-68
2023/11/10 12:29:02;;;;;;;2.00;1.40;;;11.10;99.90;;;;;;5064195;28;20444;-68
2023/11/10 12:31:28;;;;;;;2.20;1.60;;;11.00;99.90;;;;;;5065838;28;20423;-69
2023/11/10 12:33:59;;;;;;;2.40;1.70;;;11.00;99.90;;;;;;5073667;28;20417;-68
2023/11/10 12:36:25;;;;;;;2.40;1.30;;;10.90;99.90;;;;;;5061513;28;20212;-70
2023/11/10 12:38:51;;;;;;;1.60;1.10;;;10.90;99.90;;;;;;5062169;28;20444;-66
2023/11/10 12:41:17;;;;;;;2.27;2.07;;;10.90;99.90;;;;;;5066556;28;20174;-66
2023/11/10 12:43:43;;;;;;;2.50;1.37;;;10.90;99.90;;;;;;5065574;28;20416;-67
2023/11/10 12:46:12;;;;;;;6.30;2.20;;;10.90;99.90;;;;;;5065494;28;20412;-69
2023/11/10 12:48:40;;;;;;;2.47;1.57;;;10.90;99.90;;;;;;5074050;28;20843;-67
2023/11/10 12:51:08;;;;;;;1.37;1.27;;;10.90;99.90;;;;;;5065797;28;20452;-67